sensor_id;sensor_type;location;lat;lon;timestamp;P1;durP1;ratioP1;P2;durP2;ratioP2
22675;SDS011;12521;43.310;21.876;2023-10-19T00:01:16;9.0;;;7.0;;
22675;SDS011;12521;43.310;21.876;2023-10-19T00:05:55;9.0;;;7.0;;
22675;SDS011;12521;43.310;21.876;2023-10-19T00:10:32;8.0;;;6.0;;
22675;SDS011;12521;43.310;21.876;2023-10-19T00:15:09;8.0;;;6.0;;
22675;SDS011;12521;43.310;21.876;2023-10-19T00:19:47;6.0;;;6.0;;
22675;SDS011;12521;43.310;21.876;2023-10-19T00:24:24;6.0;;;6.0;;
22675;SDS011;12521;43.310;21.876;2023-10-19T00:29:01;6.0;;;6.0;;
22675;SDS011;12521;43.310;21.876;2023-10-19T00:33:39;8.0;;;8.0;;
22675;SDS011;12521;43.310;21.876;2023-10-19T00:38:16;8.0;;;8.0;;
22675;SDS011;12521;43.310;21.876;2023-10-19T00:42:53;9.0;;;9.0;;
22675;SDS011;12521;43.310;21.876;2023-10-19T00:47:30;9.0;;;9.0;;
22675;SDS011;12521;43.310;21.876;2023-10-19T00:52:06;9.0;;;8.0;;
22675;SDS011;12521;43.310;21.876;2023-10-19T00:56:46;9.0;;;8.0;;
22675;SDS011;12521;43.310;21.876;2023-10-19T01:01:25;9.0;;;7.0;;
22675;SDS011;12521;43.310;21.876;2023-10-19T01:06:10;9.0;;;7.0;;
22675;SDS011;12521;43.310;21.876;2023-10-19T01:10:46;8.0;;;7.0;;
22675;SDS011;12521;43.310;21.876;2023-10-19T01:15:25;8.0;;;7.0;;
22675;SDS011;12521;43.310;21.876;2023-10-19T01:20:01;8.0;;;7.0;;
22675;SDS011;12521;43.310;21.876;2023-10-19T01:24:41;8.0;;;7.0;;
22675;SDS011;12521;43.310;21.876;2023-10-19T01:29:17;8.0;;;7.0;;
22675;SDS011;12521;43.310;21.876;2023-10-19T01:33:53;8.0;;;6.0;;
22675;SDS011;12521;43.310;21.876;2023-10-19T01:38:35;8.0;;;6.0;;
22675;SDS011;12521;43.310;21.876;2023-10-19T01:43:13;8.0;;;6.0;;
22675;SDS011;12521;43.310;21.876;2023-10-19T01:47:50;8.0;;;6.0;;
22675;SDS011;12521;43.310;21.876;2023-10-19T01:52:27;9.0;;;6.0;;
22675;SDS011;12521;43.310;21.876;2023-10-19T01:57:03;9.0;;;6.0;;
22675;SDS011;12521;43.310;21.876;2023-10-19T02:01:39;10.0;;;7.0;;
22675;SDS011;12521;43.310;21.876;2023-10-19T02:06:16;10.0;;;7.0;;
22675;SDS011;12521;43.310;21.876;2023-10-19T02:10:52;12.0;;;8.0;;
22675;SDS011;12521;43.310;21.876;2023-10-19T02:15:29;12.0;;;8.0;;
22675;SDS011;12521;43.310;21.876;2023-10-19T02:20:06;14.0;;;10.0;;
22675;SDS011;12521;43.310;21.876;2023-10-19T02:24:47;14.0;;;10.0;;
22675;SDS011;12521;43.310;21.876;2023-10-19T02:29:23;14.0;;;10.0;;
22675;SDS011;12521;43.310;21.876;2023-10-19T02:34:00;14.0;;;10.0;;
22675;SDS011;12521;43.310;21.876;2023-10-19T02:38:36;14.0;;;10.0;;
22675;SDS011;12521;43.310;21.876;2023-10-19T02:43:13;13.0;;;9.0;;
22675;SDS011;12521;43.310;21.876;2023-10-19T02:47:49;13.0;;;9.0;;
22675;SDS011;12521;43.310;21.876;2023-10-19T02:52:26;12.0;;;9.0;;
22675;SDS011;12521;43.310;21.876;2023-10-19T02:57:03;12.0;;;9.0;;
22675;SDS011;12521;43.310;21.876;2023-10-19T03:01:40;10.0;;;9.0;;
22675;SDS011;12521;43.310;21.876;2023-10-19T03:06:19;10.0;;;9.0;;
22675;SDS011;12521;43.310;21.876;2023-10-19T03:10:59;8.0;;;8.0;;
22675;SDS011;12521;43.310;21.876;2023-10-19T03:15:35;8.0;;;8.0;;
22675;SDS011;12521;43.310;21.876;2023-10-19T03:20:12;7.0;;;6.0;;
22675;SDS011;12521;43.310;21.876;2023-10-19T03:24:49;7.0;;;6.0;;
22675;SDS011;12521;43.310;21.876;2023-10-19T03:29:26;7.0;;;6.0;;
22675;SDS011;12521;43.310;21.876;2023-10-19T03:34:03;8.0;;;6.0;;
22675;SDS011;12521;43.310;21.876;2023-10-19T03:38:40;8.0;;;6.0;;
22675;SDS011;12521;43.310;21.876;2023-10-19T03:43:16;8.0;;;7.0;;
22675;SDS011;12521;43.310;21.876;2023-10-19T03:47:54;8.0;;;7.0;;
22675;SDS011;12521;43.310;21.876;2023-10-19T03:52:30;8.0;;;7.0;;
22675;SDS011;12521;43.310;21.876;2023-10-19T03:57:07;8.0;;;7.0;;
22675;SDS011;12521;43.310;21.876;2023-10-19T04:01:50;9.0;;;7.0;;
22675;SDS011;12521;43.310;21.876;2023-10-19T04:06:27;9.0;;;7.0;;
22675;SDS011;12521;43.310;21.876;2023-10-19T04:11:03;8.0;;;6.0;;
22675;SDS011;12521;43.310;21.876;2023-10-19T04:15:39;8.0;;;6.0;;
22675;SDS011;12521;43.310;21.876;2023-10-19T04:20:17;7.0;;;5.0;;
22675;SDS011;12521;43.310;21.876;2023-10-19T04:24:54;7.0;;;5.0;;
22675;SDS011;12521;43.310;21.876;2023-10-19T04:29:31;7.0;;;5.0;;
22675;SDS011;12521;43.310;21.876;2023-10-19T04:34:07;8.0;;;7.0;;
22675;SDS011;12521;43.310;21.876;2023-10-19T04:38:43;8.0;;;7.0;;
22675;SDS011;12521;43.310;21.876;2023-10-19T04:43:20;10.0;;;9.0;;
22675;SDS011;12521;43.310;21.876;2023-10-19T04:47:56;10.0;;;9.0;;
22675;SDS011;12521;43.310;21.876;2023-10-19T04:52:33;10.0;;;9.0;;
22675;SDS011;12521;43.310;21.876;2023-10-19T04:57:10;10.0;;;9.0;;
22675;SDS011;12521;43.310;21.876;2023-10-19T05:01:46;11.0;;;9.0;;
22675;SDS011;12521;43.310;21.876;2023-10-19T05:06:22;11.0;;;9.0;;
22675;SDS011;12521;43.310;21.876;2023-10-19T05:10:58;12.0;;;10.0;;
22675;SDS011;12521;43.310;21.876;2023-10-19T05:15:35;12.0;;;10.0;;
22675;SDS011;12521;43.310;21.876;2023-10-19T05:20:11;13.0;;;11.0;;
22675;SDS011;12521;43.310;21.876;2023-10-19T05:24:48;13.0;;;11.0;;
22675;SDS011;12521;43.310;21.876;2023-10-19T05:29:24;13.0;;;11.0;;
22675;SDS011;12521;43.310;21.876;2023-10-19T05:34:01;16.0;;;14.0;;
22675;SDS011;12521;43.310;21.876;2023-10-19T05:38:39;16.0;;;14.0;;
22675;SDS011;12521;43.310;21.876;2023-10-19T05:43:16;19.0;;;17.0;;
22675;SDS011;12521;43.310;21.876;2023-10-19T05:47:54;19.0;;;17.0;;
22675;SDS011;12521;43.310;21.876;2023-10-19T05:52:32;16.0;;;14.0;;
22675;SDS011;12521;43.310;21.876;2023-10-19T05:57:09;16.0;;;14.0;;
22675;SDS011;12521;43.310;21.876;2023-10-19T06:01:46;14.0;;;10.0;;
22675;SDS011;12521;43.310;21.876;2023-10-19T06:06:23;14.0;;;10.0;;
22675;SDS011;12521;43.310;21.876;2023-10-19T06:10:59;16.0;;;12.0;;
22675;SDS011;12521;43.310;21.876;2023-10-19T06:15:36;16.0;;;12.0;;
22675;SDS011;12521;43.310;21.876;2023-10-19T06:20:13;18.0;;;15.0;;
22675;SDS011;12521;43.310;21.876;2023-10-19T06:24:52;18.0;;;15.0;;
22675;SDS011;12521;43.310;21.876;2023-10-19T06:29:28;18.0;;;15.0;;
22675;SDS011;12521;43.310;21.876;2023-10-19T06:34:05;20.0;;;16.0;;
22675;SDS011;12521;43.310;21.876;2023-10-19T06:38:41;20.0;;;16.0;;
22675;SDS011;12521;43.310;21.876;2023-10-19T06:43:17;22.0;;;18.0;;
22675;SDS011;12521;43.310;21.876;2023-10-19T06:47:53;22.0;;;18.0;;
22675;SDS011;12521;43.310;21.876;2023-10-19T06:52:29;20.0;;;15.0;;
22675;SDS011;12521;43.310;21.876;2023-10-19T06:57:06;20.0;;;15.0;;
22675;SDS011;12521;43.310;21.876;2023-10-19T07:01:43;17.0;;;12.0;;
22675;SDS011;12521;43.310;21.876;2023-10-19T07:06:19;17.0;;;12.0;;
22675;SDS011;12521;43.310;21.876;2023-10-19T07:10:55;17.0;;;12.0;;
22675;SDS011;12521;43.310;21.876;2023-10-19T07:15:32;17.0;;;12.0;;
22675;SDS011;12521;43.310;21.876;2023-10-19T07:20:09;17.0;;;12.0;;
22675;SDS011;12521;43.310;21.876;2023-10-19T07:24:53;17.0;;;12.0;;
22675;SDS011;12521;43.310;21.876;2023-10-19T07:29:30;17.0;;;12.0;;
22675;SDS011;12521;43.310;21.876;2023-10-19T07:34:07;16.0;;;12.0;;
22675;SDS011;12521;43.310;21.876;2023-10-19T07:38:43;16.0;;;12.0;;
22675;SDS011;12521;43.310;21.876;2023-10-19T07:43:19;15.0;;;13.0;;
22675;SDS011;12521;43.310;21.876;2023-10-19T07:47:56;15.0;;;13.0;;
22675;SDS011;12521;43.310;21.876;2023-10-19T07:52:34;16.0;;;11.0;;
22675;SDS011;12521;43.310;21.876;2023-10-19T07:57:10;16.0;;;11.0;;
22675;SDS011;12521;43.310;21.876;2023-10-19T08:01:46;16.0;;;9.0;;
22675;SDS011;12521;43.310;21.876;2023-10-19T08:06:23;16.0;;;9.0;;
22675;SDS011;12521;43.310;21.876;2023-10-19T08:11:00;12.0;;;8.0;;
22675;SDS011;12521;43.310;21.876;2023-10-19T08:15:37;12.0;;;8.0;;
22675;SDS011;12521;43.310;21.876;2023-10-19T08:20:15;8.0;;;8.0;;
22675;SDS011;12521;43.310;21.876;2023-10-19T08:24:53;8.0;;;8.0;;
22675;SDS011;12521;43.310;21.876;2023-10-19T08:29:30;8.0;;;8.0;;
22675;SDS011;12521;43.310;21.876;2023-10-19T08:34:07;12.0;;;10.0;;
22675;SDS011;12521;43.310;21.876;2023-10-19T08:38:46;12.0;;;10.0;;
22675;SDS011;12521;43.310;21.876;2023-10-19T08:43:23;16.0;;;11.0;;
22675;SDS011;12521;43.310;21.876;2023-10-19T08:48:01;16.0;;;11.0;;
22675;SDS011;12521;43.310;21.876;2023-10-19T08:52:41;10.0;;;8.0;;
22675;SDS011;12521;43.310;21.876;2023-10-19T08:57:21;10.0;;;8.0;;
22675;SDS011;12521;43.310;21.876;2023-10-19T09:02:01;5.0;;;5.0;;
22675;SDS011;12521;43.310;21.876;2023-10-19T09:06:39;5.0;;;5.0;;
22675;SDS011;12521;43.310;21.876;2023-10-19T09:11:16;6.0;;;5.0;;
22675;SDS011;12521;43.310;21.876;2023-10-19T09:15:53;6.0;;;5.0;;
22675;SDS011;12521;43.310;21.876;2023-10-19T09:20:39;6.0;;;5.0;;
22675;SDS011;12521;43.310;21.876;2023-10-19T09:25:21;6.0;;;5.0;;
22675;SDS011;12521;43.310;21.876;2023-10-19T09:29:57;6.0;;;5.0;;
22675;SDS011;12521;43.310;21.876;2023-10-19T09:34:43;6.0;;;6.0;;
22675;SDS011;12521;43.310;21.876;2023-10-19T09:39:22;6.0;;;6.0;;
22675;SDS011;12521;43.310;21.876;2023-10-19T09:44:01;7.0;;;6.0;;
22675;SDS011;12521;43.310;21.876;2023-10-19T09:48:47;7.0;;;6.0;;
22675;SDS011;12521;43.310;21.876;2023-10-19T09:53:25;14.0;;;10.0;;
22675;SDS011;12521;43.310;21.876;2023-10-19T09:58:09;14.0;;;10.0;;
22675;SDS011;12521;43.310;21.876;2023-10-19T10:03:03;22.0;;;13.0;;
22675;SDS011;12521;43.310;21.876;2023-10-19T10:07:40;22.0;;;13.0;;
22675;SDS011;12521;43.310;21.876;2023-10-19T10:12:17;16.0;;;10.0;;
22675;SDS011;12521;43.310;21.876;2023-10-19T10:17:01;16.0;;;10.0;;
22675;SDS011;12521;43.310;21.876;2023-10-19T10:21:39;9.0;;;7.0;;
22675;SDS011;12521;43.310;21.876;2023-10-19T10:27:02;9.0;;;7.0;;
22675;SDS011;12521;43.310;21.876;2023-10-19T10:31:40;8.0;;;6.0;;
22675;SDS011;12521;43.310;21.876;2023-10-19T10:36:22;8.0;;;6.0;;
22675;SDS011;12521;43.310;21.876;2023-10-19T10:40:59;7.0;;;4.0;;
22675;SDS011;12521;43.310;21.876;2023-10-19T10:45:36;7.0;;;4.0;;
22675;SDS011;12521;43.310;21.876;2023-10-19T10:50:12;7.0;;;4.0;;
22675;SDS011;12521;43.310;21.876;2023-10-19T10:54:56;8.0;;;4.0;;
22675;SDS011;12521;43.310;21.876;2023-10-19T11:00:00;8.0;;;4.0;;
22675;SDS011;12521;43.310;21.876;2023-10-19T11:04:49;10.0;;;4.0;;
22675;SDS011;12521;43.310;21.876;2023-10-19T11:09:26;10.0;;;4.0;;
22675;SDS011;12521;43.310;21.876;2023-10-19T11:14:08;8.0;;;4.0;;
22675;SDS011;12521;43.310;21.876;2023-10-19T11:18:48;8.0;;;4.0;;
22675;SDS011;12521;43.310;21.876;2023-10-19T11:23:41;6.0;;;5.0;;
22675;SDS011;12521;43.310;21.876;2023-10-19T11:28:24;6.0;;;5.0;;
22675;SDS011;12521;43.310;21.876;2023-10-19T11:33:00;7.0;;;6.0;;
22675;SDS011;12521;43.310;21.876;2023-10-19T11:37:45;7.0;;;6.0;;
22675;SDS011;12521;43.310;21.876;2023-10-19T11:42:29;8.0;;;6.0;;
22675;SDS011;12521;43.310;21.876;2023-10-19T11:47:06;8.0;;;6.0;;
22675;SDS011;12521;43.310;21.876;2023-10-19T11:51:42;8.0;;;6.0;;
22675;SDS011;12521;43.310;21.876;2023-10-19T11:56:18;8.0;;;6.0;;
22675;SDS011;12521;43.310;21.876;2023-10-19T12:00:55;8.0;;;6.0;;
22675;SDS011;12521;43.310;21.876;2023-10-19T12:05:31;8.0;;;6.0;;
22675;SDS011;12521;43.310;21.876;2023-10-19T12:10:09;8.0;;;6.0;;
22675;SDS011;12521;43.310;21.876;2023-10-19T12:14:47;8.0;;;6.0;;
22675;SDS011;12521;43.310;21.876;2023-10-19T12:19:24;8.0;;;6.0;;
22675;SDS011;12521;43.310;21.876;2023-10-19T12:24:00;8.0;;;7.0;;
22675;SDS011;12521;43.310;21.876;2023-10-19T12:28:36;8.0;;;7.0;;
22675;SDS011;12521;43.310;21.876;2023-10-19T12:33:14;8.0;;;6.0;;
22675;SDS011;12521;43.310;21.876;2023-10-19T12:37:50;8.0;;;6.0;;
22675;SDS011;12521;43.310;21.876;2023-10-19T12:42:27;7.0;;;4.0;;
22675;SDS011;12521;43.310;21.876;2023-10-19T12:47:04;7.0;;;4.0;;
22675;SDS011;12521;43.310;21.876;2023-10-19T12:51:41;6.0;;;4.0;;
22675;SDS011;12521;43.310;21.876;2023-10-19T12:56:17;6.0;;;4.0;;
22675;SDS011;12521;43.310;21.876;2023-10-19T13:00:56;5.0;;;4.0;;
22675;SDS011;12521;43.310;21.876;2023-10-19T13:05:33;5.0;;;4.0;;
22675;SDS011;12521;43.310;21.876;2023-10-19T13:10:11;5.0;;;4.0;;
22675;SDS011;12521;43.310;21.876;2023-10-19T13:14:48;5.0;;;4.0;;
22675;SDS011;12521;43.310;21.876;2023-10-19T13:19:24;5.0;;;4.0;;
22675;SDS011;12521;43.310;21.876;2023-10-19T13:24:00;5.0;;;5.0;;
22675;SDS011;12521;43.310;21.876;2023-10-19T13:28:37;5.0;;;5.0;;
22675;SDS011;12521;43.310;21.876;2023-10-19T13:33:13;5.0;;;4.0;;
22675;SDS011;12521;43.310;21.876;2023-10-19T13:37:53;5.0;;;4.0;;
22675;SDS011;12521;43.310;21.876;2023-10-19T13:42:30;5.0;;;4.0;;
22675;SDS011;12521;43.310;21.876;2023-10-19T13:47:08;5.0;;;4.0;;
22675;SDS011;12521;43.310;21.876;2023-10-19T13:51:45;6.0;;;4.0;;
22675;SDS011;12521;43.310;21.876;2023-10-19T13:56:22;6.0;;;4.0;;
22675;SDS011;12521;43.310;21.876;2023-10-19T14:00:59;6.0;;;5.0;;
22675;SDS011;12521;43.310;21.876;2023-10-19T14:05:36;6.0;;;5.0;;
22675;SDS011;12521;43.310;21.876;2023-10-19T14:10:21;6.0;;;5.0;;
22675;SDS011;12521;43.310;21.876;2023-10-19T14:14:58;8.0;;;6.0;;
22675;SDS011;12521;43.310;21.876;2023-10-19T14:19:35;8.0;;;6.0;;
22675;SDS011;12521;43.310;21.876;2023-10-19T14:24:11;9.0;;;7.0;;
22675;SDS011;12521;43.310;21.876;2023-10-19T14:28:48;9.0;;;7.0;;
22675;SDS011;12521;43.310;21.876;2023-10-19T14:33:25;8.0;;;6.0;;
22675;SDS011;12521;43.310;21.876;2023-10-19T14:38:01;8.0;;;6.0;;
22675;SDS011;12521;43.310;21.876;2023-10-19T14:42:38;8.0;;;6.0;;
22675;SDS011;12521;43.310;21.876;2023-10-19T14:47:18;8.0;;;6.0;;
22675;SDS011;12521;43.310;21.876;2023-10-19T14:51:54;8.0;;;6.0;;
22675;SDS011;12521;43.310;21.876;2023-10-19T14:56:31;8.0;;;6.0;;
22675;SDS011;12521;43.310;21.876;2023-10-19T15:01:07;9.0;;;6.0;;
22675;SDS011;12521;43.310;21.876;2023-10-19T15:05:44;9.0;;;6.0;;
22675;SDS011;12521;43.310;21.876;2023-10-19T15:10:26;9.0;;;6.0;;
22675;SDS011;12521;43.310;21.876;2023-10-19T15:15:05;10.0;;;7.0;;
22675;SDS011;12521;43.310;21.876;2023-10-19T15:19:46;10.0;;;7.0;;
22675;SDS011;12521;43.310;21.876;2023-10-19T15:24:27;10.0;;;8.0;;
22675;SDS011;12521;43.310;21.876;2023-10-19T15:29:04;10.0;;;8.0;;
22675;SDS011;12521;43.310;21.876;2023-10-19T15:33:41;8.0;;;6.0;;
22675;SDS011;12521;43.310;21.876;2023-10-19T15:38:19;8.0;;;6.0;;
22675;SDS011;12521;43.310;21.876;2023-10-19T15:42:57;7.0;;;5.0;;
22675;SDS011;12521;43.310;21.876;2023-10-19T15:47:34;7.0;;;5.0;;
22675;SDS011;12521;43.310;21.876;2023-10-19T15:52:10;8.0;;;6.0;;
22675;SDS011;12521;43.310;21.876;2023-10-19T15:56:47;8.0;;;6.0;;
22675;SDS011;12521;43.310;21.876;2023-10-19T16:01:23;8.0;;;6.0;;
22675;SDS011;12521;43.310;21.876;2023-10-19T16:06:00;8.0;;;6.0;;
22675;SDS011;12521;43.310;21.876;2023-10-19T16:10:38;10.0;;;7.0;;
22675;SDS011;12521;43.310;21.876;2023-10-19T16:15:15;10.0;;;7.0;;
22675;SDS011;12521;43.310;21.876;2023-10-19T16:19:52;10.0;;;7.0;;
22675;SDS011;12521;43.310;21.876;2023-10-19T16:24:29;13.0;;;8.0;;
22675;SDS011;12521;43.310;21.876;2023-10-19T16:29:06;13.0;;;8.0;;
22675;SDS011;12521;43.310;21.876;2023-10-19T16:33:44;12.0;;;7.0;;
22675;SDS011;12521;43.310;21.876;2023-10-19T16:38:21;12.0;;;7.0;;
22675;SDS011;12521;43.310;21.876;2023-10-19T16:42:57;11.0;;;6.0;;
22675;SDS011;12521;43.310;21.876;2023-10-19T16:47:34;11.0;;;6.0;;
22675;SDS011;12521;43.310;21.876;2023-10-19T16:52:13;8.0;;;5.0;;
22675;SDS011;12521;43.310;21.876;2023-10-19T16:56:49;8.0;;;5.0;;
22675;SDS011;12521;43.310;21.876;2023-10-19T17:01:26;4.0;;;4.0;;
22675;SDS011;12521;43.310;21.876;2023-10-19T17:06:03;4.0;;;4.0;;
22675;SDS011;12521;43.310;21.876;2023-10-19T17:10:40;6.0;;;4.0;;
22675;SDS011;12521;43.310;21.876;2023-10-19T17:15:16;6.0;;;4.0;;
22675;SDS011;12521;43.310;21.876;2023-10-19T17:19:53;6.0;;;4.0;;
22675;SDS011;12521;43.310;21.876;2023-10-19T17:24:29;7.0;;;4.0;;
22675;SDS011;12521;43.310;21.876;2023-10-19T17:29:06;7.0;;;4.0;;
22675;SDS011;12521;43.310;21.876;2023-10-19T17:33:42;10.0;;;7.0;;
22675;SDS011;12521;43.310;21.876;2023-10-19T17:38:18;10.0;;;7.0;;
22675;SDS011;12521;43.310;21.876;2023-10-19T17:42:54;13.0;;;10.0;;
22675;SDS011;12521;43.310;21.876;2023-10-19T17:47:31;13.0;;;10.0;;
22675;SDS011;12521;43.310;21.876;2023-10-19T17:52:07;11.0;;;8.0;;
22675;SDS011;12521;43.310;21.876;2023-10-19T17:56:44;11.0;;;8.0;;
22675;SDS011;12521;43.310;21.876;2023-10-19T18:01:20;9.0;;;6.0;;
22675;SDS011;12521;43.310;21.876;2023-10-19T18:05:57;9.0;;;6.0;;
22675;SDS011;12521;43.310;21.876;2023-10-19T18:10:34;9.0;;;6.0;;
22675;SDS011;12521;43.310;21.876;2023-10-19T18:15:11;10.0;;;6.0;;
22675;SDS011;12521;43.310;21.876;2023-10-19T18:19:48;10.0;;;6.0;;
22675;SDS011;12521;43.310;21.876;2023-10-19T18:24:25;11.0;;;7.0;;
22675;SDS011;12521;43.310;21.876;2023-10-19T18:29:01;11.0;;;7.0;;
22675;SDS011;12521;43.310;21.876;2023-10-19T18:33:39;10.0;;;7.0;;
22675;SDS011;12521;43.310;21.876;2023-10-19T18:38:16;10.0;;;7.0;;
22675;SDS011;12521;43.310;21.876;2023-10-19T18:42:52;8.0;;;7.0;;
22675;SDS011;12521;43.310;21.876;2023-10-19T18:47:29;8.0;;;7.0;;
22675;SDS011;12521;43.310;21.876;2023-10-19T18:52:06;8.0;;;7.0;;
22675;SDS011;12521;43.310;21.876;2023-10-19T18:56:43;8.0;;;7.0;;
22675;SDS011;12521;43.310;21.876;2023-10-19T19:01:20;8.0;;;7.0;;
22675;SDS011;12521;43.310;21.876;2023-10-19T19:05:57;8.0;;;7.0;;
22675;SDS011;12521;43.310;21.876;2023-10-19T19:10:40;8.0;;;7.0;;
22675;SDS011;12521;43.310;21.876;2023-10-19T19:15:18;12.0;;;10.0;;
22675;SDS011;12521;43.310;21.876;2023-10-19T19:19:56;12.0;;;10.0;;
22675;SDS011;12521;43.310;21.876;2023-10-19T19:24:32;17.0;;;12.0;;
22675;SDS011;12521;43.310;21.876;2023-10-19T19:29:09;17.0;;;12.0;;
22675;SDS011;12521;43.310;21.876;2023-10-19T19:33:45;18.0;;;14.0;;
22675;SDS011;12521;43.310;21.876;2023-10-19T19:38:24;18.0;;;14.0;;
22675;SDS011;12521;43.310;21.876;2023-10-19T19:43:01;20.0;;;15.0;;
22675;SDS011;12521;43.310;21.876;2023-10-19T19:47:39;20.0;;;15.0;;
22675;SDS011;12521;43.310;21.876;2023-10-19T19:52:17;17.0;;;12.0;;
22675;SDS011;12521;43.310;21.876;2023-10-19T19:56:53;17.0;;;12.0;;
22675;SDS011;12521;43.310;21.876;2023-10-19T20:01:29;14.0;;;10.0;;
22675;SDS011;12521;43.310;21.876;2023-10-19T20:06:05;14.0;;;10.0;;
22675;SDS011;12521;43.310;21.876;2023-10-19T20:10:43;14.0;;;10.0;;
22675;SDS011;12521;43.310;21.876;2023-10-19T20:15:21;14.0;;;10.0;;
22675;SDS011;12521;43.310;21.876;2023-10-19T20:19:57;14.0;;;10.0;;
22675;SDS011;12521;43.310;21.876;2023-10-19T20:24:34;13.0;;;11.0;;
22675;SDS011;12521;43.310;21.876;2023-10-19T20:29:10;13.0;;;11.0;;
22675;SDS011;12521;43.310;21.876;2023-10-19T20:33:46;10.0;;;8.0;;
22675;SDS011;12521;43.310;21.876;2023-10-19T20:38:23;10.0;;;8.0;;
22675;SDS011;12521;43.310;21.876;2023-10-19T20:42:59;7.0;;;6.0;;
22675;SDS011;12521;43.310;21.876;2023-10-19T20:47:36;7.0;;;6.0;;
22675;SDS011;12521;43.310;21.876;2023-10-19T20:52:12;8.0;;;6.0;;
22675;SDS011;12521;43.310;21.876;2023-10-19T20:56:49;8.0;;;6.0;;
22675;SDS011;12521;43.310;21.876;2023-10-19T21:01:25;10.0;;;5.0;;
22675;SDS011;12521;43.310;21.876;2023-10-19T21:06:12;10.0;;;5.0;;
22675;SDS011;12521;43.310;21.876;2023-10-19T21:10:51;8.0;;;4.0;;
22675;SDS011;12521;43.310;21.876;2023-10-19T21:15:27;8.0;;;4.0;;
22675;SDS011;12521;43.310;21.876;2023-10-19T21:20:04;8.0;;;4.0;;
22675;SDS011;12521;43.310;21.876;2023-10-19T21:24:45;5.0;;;4.0;;
22675;SDS011;12521;43.310;21.876;2023-10-19T21:29:22;5.0;;;4.0;;
22675;SDS011;12521;43.310;21.876;2023-10-19T21:33:58;4.0;;;4.0;;
22675;SDS011;12521;43.310;21.876;2023-10-19T21:38:35;4.0;;;4.0;;
22675;SDS011;12521;43.310;21.876;2023-10-19T21:43:12;4.0;;;4.0;;
22675;SDS011;12521;43.310;21.876;2023-10-19T21:47:50;4.0;;;4.0;;
22675;SDS011;12521;43.310;21.876;2023-10-19T21:52:27;4.0;;;4.0;;
22675;SDS011;12521;43.310;21.876;2023-10-19T21:57:03;4.0;;;4.0;;
22675;SDS011;12521;43.310;21.876;2023-10-19T22:01:40;5.0;;;3.0;;
22675;SDS011;12521;43.310;21.876;2023-10-19T22:06:21;5.0;;;3.0;;
22675;SDS011;12521;43.310;21.876;2023-10-19T22:10:58;4.0;;;3.0;;
22675;SDS011;12521;43.310;21.876;2023-10-19T22:15:35;4.0;;;3.0;;
22675;SDS011;12521;43.310;21.876;2023-10-19T22:20:12;4.0;;;3.0;;
22675;SDS011;12521;43.310;21.876;2023-10-19T22:24:52;4.0;;;3.0;;
22675;SDS011;12521;43.310;21.876;2023-10-19T22:29:29;4.0;;;3.0;;
22675;SDS011;12521;43.310;21.876;2023-10-19T22:34:05;4.0;;;4.0;;
22675;SDS011;12521;43.310;21.876;2023-10-19T22:38:41;4.0;;;4.0;;
22675;SDS011;12521;43.310;21.876;2023-10-19T22:43:18;5.0;;;4.0;;
22675;SDS011;12521;43.310;21.876;2023-10-19T22:47:54;5.0;;;4.0;;
22675;SDS011;12521;43.310;21.876;2023-10-19T22:52:30;4.0;;;4.0;;
22675;SDS011;12521;43.310;21.876;2023-10-19T22:57:07;4.0;;;4.0;;
22675;SDS011;12521;43.310;21.876;2023-10-19T23:01:45;4.0;;;4.0;;
22675;SDS011;12521;43.310;21.876;2023-10-19T23:06:21;4.0;;;4.0;;
22675;SDS011;12521;43.310;21.876;2023-10-19T23:10:58;5.0;;;4.0;;
22675;SDS011;12521;43.310;21.876;2023-10-19T23:15:34;5.0;;;4.0;;
22675;SDS011;12521;43.310;21.876;2023-10-19T23:20:11;5.0;;;4.0;;
22675;SDS011;12521;43.310;21.876;2023-10-19T23:24:47;6.0;;;4.0;;
22675;SDS011;12521;43.310;21.876;2023-10-19T23:29:25;6.0;;;4.0;;
22675;SDS011;12521;43.310;21.876;2023-10-19T23:34:01;5.0;;;4.0;;
22675;SDS011;12521;43.310;21.876;2023-10-19T23:38:38;5.0;;;4.0;;
22675;SDS011;12521;43.310;21.876;2023-10-19T23:43:14;4.0;;;4.0;;
22675;SDS011;12521;43.310;21.876;2023-10-19T23:47:51;4.0;;;4.0;;
22675;SDS011;12521;43.310;21.876;2023-10-19T23:52:27;4.0;;;4.0;;
22675;SDS011;12521;43.310;21.876;2023-10-19T23:57:03;4.0;;;4.0;;
